| time (UTC) | temp C | wind direction | speed KPH | gust KPH | rain 1hr cm | rain 24hr cm | rain mn cm | humidity % | barometer mb |
| 20260504014132 | 15 | 183 | 8.0 | 12.9 | 0.00 | 0.00 | 0.00 | 60 | 1009.3 |
| 20260504013132 | 15 | 178 | 6.4 | 9.7 | 0.00 | 0.00 | 0.00 | 60 | 1009.2 |
| 20260504012131 | 15 | 186 | 6.4 | 9.7 | 0.00 | 0.00 | 0.00 | 59 | 1009.0 |
| 20260504011132 | 16 | 183 | 9.7 | 9.7 | 0.00 | 0.00 | 0.00 | 58 | 1009.1 |
| 20260504010132 | 16 | 157 | 6.4 | 8.0 | 0.00 | 0.00 | 0.00 | 57 | 1009.2 |
| 20260504005131 | 16 | 194 | 8.0 | 11.3 | 0.00 | 0.00 | 0.00 | 56 | 1009.1 |
| 20260504004132 | 16 | 180 | 8.0 | 9.7 | 0.00 | 0.00 | 0.00 | 56 | 1009.0 |
| 20260504003131 | 17 | 186 | 8.0 | 9.7 | 0.00 | 0.00 | 0.00 | 55 | 1009.0 |
| 20260504002132 | 17 | 176 | 8.0 | 11.3 | 0.00 | 0.00 | 0.00 | 54 | 1009.0 |
| 20260504001131 | 17 | 180 | 9.7 | 9.7 | 0.00 | 0.00 | 0.00 | 53 | 1009.0 |
| 20260504000131 | 17 | 197 | 9.7 | 11.3 | 0.00 | 0.00 | 0.00 | 53 | 1008.9 |
| 20260503235132 | 18 | 202 | 11.3 | 19.3 | 0.00 | 0.00 | 0.00 | 50 | 1008.9 |
| 20260503234132 | 18 | 186 | 12.9 | 17.7 | 0.00 | 0.00 | 0.00 | 49 | 1009.0 |
| 20260503233131 | 18 | 206 | 12.9 | 16.1 | 0.00 | 0.00 | 0.00 | 50 | 1009.1 |
| 20260503232132 | 18 | 197 | 11.3 | 14.5 | 0.00 | 0.00 | 0.00 | 52 | 1009.2 |
| 20260503231132 | 18 | 192 | 12.9 | 12.9 | 0.00 | 0.00 | 0.00 | 51 | 1009.2 |
| 20260503230132 | 18 | 173 | 12.9 | 20.9 | 0.00 | 0.00 | 0.00 | 51 | 1009.2 |
| 20260503225132 | 17 | 201 | 12.9 | 25.7 | 0.00 | 0.00 | 0.00 | 51 | 1009.3 |
| 20260503224131 | 17 | 191 | 12.9 | 19.3 | 0.00 | 0.00 | 0.00 | 51 | 1009.5 |
| 20260503223131 | 18 | 188 | 14.5 | 19.3 | 0.00 | 0.00 | 0.00 | 50 | 1009.2 |
| 20260503221132 | 17 | 184 | 16.1 | 16.1 | 0.00 | 0.00 | 0.00 | 53 | 1009.5 |
| 20260503220131 | 17 | 160 | 16.1 | 19.3 | 0.00 | 0.00 | 0.00 | 53 | 1009.7 |
| 20260503214132 | 17 | 185 | 16.1 | 20.9 | 0.00 | 0.00 | 0.00 | 51 | 1009.7 |
| 20260503213132 | 16 | 193 | 16.1 | 20.9 | 0.00 | 0.00 | 0.00 | 54 | 1010.3 |
| 20260503211131 | 17 | 182 | 16.1 | 16.1 | 0.00 | 0.00 | 0.00 | 52 | 1010.4 |
| 20260503210131 | 16 | 181 | 16.1 | 24.1 | 0.00 | 0.00 | 0.00 | 52 | 1010.6 |
| 20260503204131 | 16 | 186 | 14.5 | 27.4 | 0.00 | 0.00 | 0.00 | 53 | 1010.4 |
| 20260503203131 | 16 | 149 | 12.9 | 20.9 | 0.00 | 0.00 | 0.00 | 54 | 1011.0 |
| 20260503202131 | 16 | 200 | 16.1 | 24.1 | 0.00 | 0.00 | 0.00 | 53 | 1011.4 |
| 20260503201131 | 16 | 180 | 14.5 | 14.5 | 0.00 | 0.00 | 0.00 | 52 | 1011.7 |
| 20260503200132 | 16 | 176 | 14.5 | 22.5 | 0.00 | 0.00 | 0.00 | 52 | 1011.7 |
| 20260503194131 | 16 | 189 | 12.9 | 19.3 | 0.00 | 0.00 | 0.00 | 51 | 1012.5 |
| 20260503193131 | 16 | 198 | 12.9 | 24.1 | 0.00 | 0.00 | 0.00 | 51 | 1013.4 |
| 20260503192131 | 16 | 179 | 12.9 | 14.5 | 0.00 | 0.00 | 0.00 | 51 | 1013.6 |
| 20260503191131 | 16 | 197 | 12.9 | 12.9 | 0.00 | 0.00 | 0.00 | 52 | 1013.7 |
| 20260503190131 | 15 | 180 | 12.9 | 20.9 | 0.00 | 0.00 | 0.00 | 53 | 1014.3 |
| 20260503185131 | 15 | 187 | 11.3 | 16.1 | 0.00 | 0.00 | 0.00 | 51 | 1014.6 |
| 20260503184131 | 15 | 190 | 12.9 | 19.3 | 0.00 | 0.00 | 0.00 | 50 | 1014.6 |
| 20260503183131 | 15 | 176 | 12.9 | 17.7 | 0.00 | 0.00 | 0.00 | 49 | 1014.5 |
| 20260503180131 | 16 | 178 | 11.3 | 14.5 | 0.00 | 0.00 | 0.00 | 45 | 1014.6 |
| 20260503175132 | 17 | 192 | 11.3 | 20.9 | 0.00 | 0.00 | 0.00 | 42 | 1014.5 |
| 20260503174131 | 16 | 115 | 11.3 | 17.7 | 0.00 | 0.00 | 0.00 | 45 | 1015.1 |
| 20260503173131 | 16 | 166 | 14.5 | 19.3 | 0.00 | 0.00 | 0.00 | 45 | 1015.4 |
| 20260503171131 | 16 | 178 | 12.9 | 12.9 | 0.00 | 0.00 | 0.00 | 46 | 1015.4 |
| 20260503170131 | 16 | 190 | 11.3 | 12.9 | 0.00 | 0.00 | 0.00 | 47 | 1015.9 |
| 20260503160132 | 16 | 200 | 14.5 | 20.9 | 0.00 | 0.00 | 0.00 | 51 | 1016.9 |
| 20260503150131 | 12 | 201 | 11.3 | 16.1 | 0.00 | 0.00 | 0.00 | 59 | 1018.0 |
| 20260503140132 | 11 | 180 | 12.9 | 14.5 | 0.00 | 0.00 | 0.00 | 60 | 1018.3 |
| 20260503131132 | 9 | 207 | 9.7 | 9.7 | 0.00 | 0.00 | 0.00 | 71 | 1019.0 |
| 20260503130132 | 8 | 203 | 9.7 | 12.9 | 0.00 | 0.00 | 0.00 | 72 | 1019.0 |
| 20260503120132 | 5 | 188 | 4.8 | 8.0 | 0.00 | 0.00 | 0.00 | 76 | 1019.0 |
| 20260503110132 | 5 | 188 | 4.8 | 8.0 | 0.00 | 0.00 | 0.00 | 73 | 1018.9 |
| 20260503100132 | 5 | 170 | 4.8 | 4.8 | 0.00 | 0.00 | 0.00 | 71 | 1019.1 |
| 20260503090132 | 5 | 188 | 4.8 | 6.4 | 0.00 | 0.00 | 0.00 | 70 | 1019.2 |
| 20260503081132 | 5 | 172 | 3.2 | 3.2 | 0.00 | 0.00 | 0.00 | 68 | 1019.2 |
| 20260503080132 | 5 | 164 | 3.2 | 4.8 | 0.00 | 0.00 | 0.00 | 67 | 1019.2 |
| 20260503072132 | 5 | 174 | 3.2 | 3.2 | 0.00 | 0.00 | 0.00 | 66 | 1019.5 |
| 20260503071131 | 5 | 178 | 3.2 | 3.2 | 0.00 | 0.00 | 0.00 | 65 | 1019.4 |
| 20260503070131 | 5 | 182 | 3.2 | 4.8 | 0.00 | 0.00 | 0.00 | 65 | 1019.4 |
| 20260503060133 | 6 | 167 | 3.2 | 4.8 | 0.00 | 0.00 | 0.00 | 62 | 1019.7 |
| 20260503054132 | 6 | 172 | 3.2 | 3.2 | 0.00 | 0.00 | 0.00 | 61 | 1019.8 |
| 20260503053131 | 6 | 172 | 3.2 | 4.8 | 0.00 | 0.00 | 0.00 | 61 | 1019.8 |
| 20260503052133 | 6 | 172 | 1.6 | 3.2 | 0.00 | 0.00 | 0.00 | 62 | 1019.8 |
| 20260503051131 | 6 | 175 | 1.6 | 1.6 | 0.00 | 0.00 | 0.00 | 62 | 1019.8 |
| 20260503050132 | 6 | 173 | 1.6 | 1.6 | 0.00 | 0.00 | 0.00 | 61 | 1019.8 |
| 20260503044131 | 7 | 180 | 1.6 | 3.2 | 0.00 | 0.00 | 0.00 | 59 | 1019.8 |
| 20260503043131 | 7 | 176 | 1.6 | 1.6 | 0.00 | 0.00 | 0.00 | 59 | 1019.8 |
| 20260503042132 | 7 | 180 | 1.6 | 3.2 | 0.00 | 0.00 | 0.00 | 58 | 1019.7 |
| 20260503041131 | 7 | 165 | 1.6 | 1.6 | 0.00 | 0.00 | 0.00 | 58 | 1019.7 |
| 20260503040131 | 7 | 169 | 1.6 | 3.2 | 0.00 | 0.00 | 0.00 | 57 | 1019.8 |
| 20260503035131 | 7 | 180 | 1.6 | 3.2 | 0.00 | 0.00 | 0.00 | 58 | 1019.9 |
| 20260503025131 | 7 | 180 | 0.0 | 1.6 | 0.00 | 0.00 | 0.00 | 59 | 1020.0 |